sensor_id;sensor_type;location;lat;lon;timestamp;temperature;humidity
17333;DHT22;8784;50.94667800;7.08448400;2023-07-20T00:00:57;19.40;85.20
17333;DHT22;8784;50.94667800;7.08448400;2023-07-20T00:03:24;19.40;85.50
17333;DHT22;8784;50.94667800;7.08448400;2023-07-20T00:05:51;19.50;85.60
17333;DHT22;8784;50.94667800;7.08448400;2023-07-20T00:08:18;19.50;85.80
17333;DHT22;8784;50.94667800;7.08448400;2023-07-20T00:10:45;19.50;85.80
17333;DHT22;8784;50.94667800;7.08448400;2023-07-20T00:13:13;19.50;85.90
17333;DHT22;8784;50.94667800;7.08448400;2023-07-20T00:15:41;19.50;86.10
17333;DHT22;8784;50.94667800;7.08448400;2023-07-20T00:18:08;19.50;86.20
17333;DHT22;8784;50.94667800;7.08448400;2023-07-20T00:20:35;19.50;86.40
17333;DHT22;8784;50.94667800;7.08448400;2023-07-20T00:23:02;19.50;86.50
17333;DHT22;8784;50.94667800;7.08448400;2023-07-20T00:25:29;19.50;86.80
17333;DHT22;8784;50.94667800;7.08448400;2023-07-20T00:27:56;19.50;86.80
17333;DHT22;8784;50.94667800;7.08448400;2023-07-20T00:30:24;19.60;87.20
17333;DHT22;8784;50.94667800;7.08448400;2023-07-20T00:32:51;19.60;87.20
17333;DHT22;8784;50.94667800;7.08448400;2023-07-20T00:35:18;19.60;87.30
17333;DHT22;8784;50.94667800;7.08448400;2023-07-20T00:37:45;19.60;87.40
17333;DHT22;8784;50.94667800;7.08448400;2023-07-20T00:40:12;19.70;87.60
17333;DHT22;8784;50.94667800;7.08448400;2023-07-20T00:42:39;19.70;87.60
17333;DHT22;8784;50.94667800;7.08448400;2023-07-20T00:45:06;19.80;87.70
17333;DHT22;8784;50.94667800;7.08448400;2023-07-20T00:47:36;19.80;87.80
17333;DHT22;8784;50.94667800;7.08448400;2023-07-20T00:50:05;19.80;87.80
17333;DHT22;8784;50.94667800;7.08448400;2023-07-20T00:52:33;19.80;88.60
17333;DHT22;8784;50.94667800;7.08448400;2023-07-20T00:55:01;19.80;88.20
17333;DHT22;8784;50.94667800;7.08448400;2023-07-20T00:57:28;19.80;88.40
17333;DHT22;8784;50.94667800;7.08448400;2023-07-20T00:59:55;19.70;88.60
17333;DHT22;8784;50.94667800;7.08448400;2023-07-20T01:02:22;19.70;88.80
17333;DHT22;8784;50.94667800;7.08448400;2023-07-20T01:04:50;19.70;89.00
17333;DHT22;8784;50.94667800;7.08448400;2023-07-20T01:07:24;19.70;89.10
17333;DHT22;8784;50.94667800;7.08448400;2023-07-20T01:09:59;19.70;89.30
17333;DHT22;8784;50.94667800;7.08448400;2023-07-20T01:12:33;19.60;89.40
17333;DHT22;8784;50.94667800;7.08448400;2023-07-20T01:15:02;19.60;89.70
17333;DHT22;8784;50.94667800;7.08448400;2023-07-20T01:17:29;19.50;89.90
17333;DHT22;8784;50.94667800;7.08448400;2023-07-20T01:19:57;19.50;90.10
17333;DHT22;8784;50.94667800;7.08448400;2023-07-20T01:22:41;19.50;90.20
17333;DHT22;8784;50.94667800;7.08448400;2023-07-20T01:25:34;19.50;90.30
17333;DHT22;8784;50.94667800;7.08448400;2023-07-20T01:28:20;19.60;90.40
17333;DHT22;8784;50.94667800;7.08448400;2023-07-20T01:33:32;19.60;90.60
17333;DHT22;8784;50.94667800;7.08448400;2023-07-20T01:36:00;19.60;90.70
17333;DHT22;8784;50.94667800;7.08448400;2023-07-20T01:38:28;19.60;90.80
17333;DHT22;8784;50.94667800;7.08448400;2023-07-20T01:40:56;19.60;91.20
17333;DHT22;8784;50.94667800;7.08448400;2023-07-20T01:43:23;19.60;91.00
17333;DHT22;8784;50.94667800;7.08448400;2023-07-20T01:45:50;19.60;91.10
17333;DHT22;8784;50.94667800;7.08448400;2023-07-20T01:48:17;19.50;91.20
17333;DHT22;8784;50.94667800;7.08448400;2023-07-20T01:50:45;19.50;91.40
17333;DHT22;8784;50.94667800;7.08448400;2023-07-20T01:53:13;19.50;91.60
17333;DHT22;8784;50.94667800;7.08448400;2023-07-20T01:55:40;19.50;91.70
17333;DHT22;8784;50.94667800;7.08448400;2023-07-20T01:58:08;19.40;91.90
17333;DHT22;8784;50.94667800;7.08448400;2023-07-20T02:00:37;19.40;92.10
17333;DHT22;8784;50.94667800;7.08448400;2023-07-20T02:03:04;19.40;92.20
17333;DHT22;8784;50.94667800;7.08448400;2023-07-20T02:05:30;19.40;92.40
17333;DHT22;8784;50.94667800;7.08448400;2023-07-20T02:07:59;19.40;92.60
17333;DHT22;8784;50.94667800;7.08448400;2023-07-20T02:10:25;19.40;92.80
17333;DHT22;8784;50.94667800;7.08448400;2023-07-20T02:12:52;19.30;92.90
17333;DHT22;8784;50.94667800;7.08448400;2023-07-20T02:15:20;19.30;93.10
17333;DHT22;8784;50.94667800;7.08448400;2023-07-20T02:17:46;19.30;93.30
17333;DHT22;8784;50.94667800;7.08448400;2023-07-20T02:20:13;19.20;93.60
17333;DHT22;8784;50.94667800;7.08448400;2023-07-20T02:22:40;19.20;93.90
17333;DHT22;8784;50.94667800;7.08448400;2023-07-20T02:25:09;19.10;94.10
17333;DHT22;8784;50.94667800;7.08448400;2023-07-20T02:27:37;19.20;94.30
17333;DHT22;8784;50.94667800;7.08448400;2023-07-20T02:30:05;19.20;94.70
17333;DHT22;8784;50.94667800;7.08448400;2023-07-20T02:32:33;19.20;94.80
17333;DHT22;8784;50.94667800;7.08448400;2023-07-20T02:35:00;19.10;94.90
17333;DHT22;8784;50.94667800;7.08448400;2023-07-20T02:37:29;19.00;95.10
17333;DHT22;8784;50.94667800;7.08448400;2023-07-20T02:39:56;19.00;95.50
17333;DHT22;8784;50.94667800;7.08448400;2023-07-20T02:42:24;18.90;95.80
17333;DHT22;8784;50.94667800;7.08448400;2023-07-20T02:44:51;18.90;96.10
17333;DHT22;8784;50.94667800;7.08448400;2023-07-20T02:47:18;18.80;96.40
17333;DHT22;8784;50.94667800;7.08448400;2023-07-20T02:49:45;18.80;96.70
17333;DHT22;8784;50.94667800;7.08448400;2023-07-20T02:52:12;18.70;97.00
17333;DHT22;8784;50.94667800;7.08448400;2023-07-20T02:54:39;18.70;97.40
17333;DHT22;8784;50.94667800;7.08448400;2023-07-20T02:57:06;18.70;97.60
17333;DHT22;8784;50.94667800;7.08448400;2023-07-20T02:59:34;18.70;97.80
17333;DHT22;8784;50.94667800;7.08448400;2023-07-20T03:02:01;18.60;98.00
17333;DHT22;8784;50.94667800;7.08448400;2023-07-20T03:04:28;18.60;98.20
17333;DHT22;8784;50.94667800;7.08448400;2023-07-20T03:06:55;18.60;98.40
17333;DHT22;8784;50.94667800;7.08448400;2023-07-20T03:09:22;18.50;98.70
17333;DHT22;8784;50.94667800;7.08448400;2023-07-20T03:11:50;18.50;98.90
17333;DHT22;8784;50.94667800;7.08448400;2023-07-20T03:14:16;18.40;99.10
17333;DHT22;8784;50.94667800;7.08448400;2023-07-20T03:16:45;18.50;99.30
17333;DHT22;8784;50.94667800;7.08448400;2023-07-20T03:19:11;18.50;99.50
17333;DHT22;8784;50.94667800;7.08448400;2023-07-20T03:21:38;18.50;99.90
17333;DHT22;8784;50.94667800;7.08448400;2023-07-20T03:24:06;18.40;99.70
17333;DHT22;8784;50.94667800;7.08448400;2023-07-20T03:26:34;18.50;99.80
17333;DHT22;8784;50.94667800;7.08448400;2023-07-20T03:29:00;18.50;99.90
17333;DHT22;8784;50.94667800;7.08448400;2023-07-20T03:31:27;18.50;99.90
17333;DHT22;8784;50.94667800;7.08448400;2023-07-20T03:33:56;18.50;99.90
17333;DHT22;8784;50.94667800;7.08448400;2023-07-20T03:36:22;18.60;99.90
17333;DHT22;8784;50.94667800;7.08448400;2023-07-20T03:38:49;18.60;99.90
17333;DHT22;8784;50.94667800;7.08448400;2023-07-20T03:41:16;18.60;99.90
17333;DHT22;8784;50.94667800;7.08448400;2023-07-20T03:43:45;18.60;99.90
17333;DHT22;8784;50.94667800;7.08448400;2023-07-20T03:46:12;18.50;99.90
17333;DHT22;8784;50.94667800;7.08448400;2023-07-20T03:48:39;18.50;99.90
17333;DHT22;8784;50.94667800;7.08448400;2023-07-20T03:51:07;18.50;99.90
17333;DHT22;8784;50.94667800;7.08448400;2023-07-20T03:53:34;18.50;99.90
17333;DHT22;8784;50.94667800;7.08448400;2023-07-20T03:56:01;18.50;99.90
17333;DHT22;8784;50.94667800;7.08448400;2023-07-20T03:58:28;18.50;99.90
17333;DHT22;8784;50.94667800;7.08448400;2023-07-20T04:00:57;18.50;99.90
17333;DHT22;8784;50.94667800;7.08448400;2023-07-20T04:03:24;18.60;99.90
17333;DHT22;8784;50.94667800;7.08448400;2023-07-20T04:05:53;18.60;99.90
17333;DHT22;8784;50.94667800;7.08448400;2023-07-20T04:08:22;18.70;99.90
17333;DHT22;8784;50.94667800;7.08448400;2023-07-20T04:10:49;18.70;99.90
17333;DHT22;8784;50.94667800;7.08448400;2023-07-20T04:13:16;18.70;99.90
17333;DHT22;8784;50.94667800;7.08448400;2023-07-20T04:15:43;18.80;99.90
17333;DHT22;8784;50.94667800;7.08448400;2023-07-20T04:18:09;18.80;99.90
17333;DHT22;8784;50.94667800;7.08448400;2023-07-20T04:20:36;18.80;99.90
17333;DHT22;8784;50.94667800;7.08448400;2023-07-20T04:23:03;18.80;99.90
17333;DHT22;8784;50.94667800;7.08448400;2023-07-20T04:25:31;18.80;99.90
17333;DHT22;8784;50.94667800;7.08448400;2023-07-20T04:28:04;18.70;99.90
17333;DHT22;8784;50.94667800;7.08448400;2023-07-20T04:30:34;18.70;99.90
17333;DHT22;8784;50.94667800;7.08448400;2023-07-20T04:33:01;18.70;99.90
17333;DHT22;8784;50.94667800;7.08448400;2023-07-20T04:35:49;18.80;99.90
17333;DHT22;8784;50.94667800;7.08448400;2023-07-20T04:38:16;18.80;99.90
17333;DHT22;8784;50.94667800;7.08448400;2023-07-20T04:40:47;18.80;99.90
17333;DHT22;8784;50.94667800;7.08448400;2023-07-20T04:43:14;18.80;99.90
17333;DHT22;8784;50.94667800;7.08448400;2023-07-20T04:45:41;18.80;99.90
17333;DHT22;8784;50.94667800;7.08448400;2023-07-20T04:48:10;18.90;99.90
17333;DHT22;8784;50.94667800;7.08448400;2023-07-20T04:50:38;19.00;99.90
17333;DHT22;8784;50.94667800;7.08448400;2023-07-20T04:53:05;19.00;99.90
17333;DHT22;8784;50.94667800;7.08448400;2023-07-20T04:55:32;19.10;99.90
17333;DHT22;8784;50.94667800;7.08448400;2023-07-20T04:58:01;19.10;99.90
17333;DHT22;8784;50.94667800;7.08448400;2023-07-20T05:00:29;19.10;99.90
17333;DHT22;8784;50.94667800;7.08448400;2023-07-20T05:02:56;19.10;99.90
17333;DHT22;8784;50.94667800;7.08448400;2023-07-20T05:05:23;19.10;99.90
17333;DHT22;8784;50.94667800;7.08448400;2023-07-20T05:07:50;19.10;99.90
17333;DHT22;8784;50.94667800;7.08448400;2023-07-20T05:10:17;19.10;99.90
17333;DHT22;8784;50.94667800;7.08448400;2023-07-20T05:12:44;19.20;99.90
17333;DHT22;8784;50.94667800;7.08448400;2023-07-20T05:15:12;19.30;99.90
17333;DHT22;8784;50.94667800;7.08448400;2023-07-20T05:17:40;19.40;99.90
17333;DHT22;8784;50.94667800;7.08448400;2023-07-20T05:20:07;19.40;99.80
17333;DHT22;8784;50.94667800;7.08448400;2023-07-20T05:22:36;19.40;99.80
17333;DHT22;8784;50.94667800;7.08448400;2023-07-20T05:25:06;19.50;99.70
17333;DHT22;8784;50.94667800;7.08448400;2023-07-20T05:27:33;19.40;99.60
17333;DHT22;8784;50.94667800;7.08448400;2023-07-20T05:30:01;19.40;99.60
17333;DHT22;8784;50.94667800;7.08448400;2023-07-20T05:32:29;19.50;99.60
17333;DHT22;8784;50.94667800;7.08448400;2023-07-20T05:34:56;19.60;99.60
17333;DHT22;8784;50.94667800;7.08448400;2023-07-20T05:37:23;19.60;99.50
17333;DHT22;8784;50.94667800;7.08448400;2023-07-20T05:39:50;19.60;99.40
17333;DHT22;8784;50.94667800;7.08448400;2023-07-20T05:42:17;19.60;99.40
17333;DHT22;8784;50.94667800;7.08448400;2023-07-20T05:44:44;19.50;99.40
17333;DHT22;8784;50.94667800;7.08448400;2023-07-20T05:47:13;19.60;99.50
17333;DHT22;8784;50.94667800;7.08448400;2023-07-20T05:49:41;19.60;99.50
17333;DHT22;8784;50.94667800;7.08448400;2023-07-20T05:52:08;19.70;99.50
17333;DHT22;8784;50.94667800;7.08448400;2023-07-20T05:54:35;19.70;99.40
17333;DHT22;8784;50.94667800;7.08448400;2023-07-20T05:57:02;19.80;99.30
17333;DHT22;8784;50.94667800;7.08448400;2023-07-20T05:59:29;19.80;99.30
17333;DHT22;8784;50.94667800;7.08448400;2023-07-20T06:01:56;19.80;99.20
17333;DHT22;8784;50.94667800;7.08448400;2023-07-20T06:04:23;19.80;99.20
17333;DHT22;8784;50.94667800;7.08448400;2023-07-20T06:06:51;19.80;99.10
17333;DHT22;8784;50.94667800;7.08448400;2023-07-20T06:09:18;19.90;99.10
17333;DHT22;8784;50.94667800;7.08448400;2023-07-20T06:11:45;20.00;99.00
17333;DHT22;8784;50.94667800;7.08448400;2023-07-20T06:14:12;20.00;98.90
17333;DHT22;8784;50.94667800;7.08448400;2023-07-20T06:16:39;20.00;98.90
17333;DHT22;8784;50.94667800;7.08448400;2023-07-20T06:19:06;19.90;98.90
17333;DHT22;8784;50.94667800;7.08448400;2023-07-20T06:21:32;20.00;99.00
17333;DHT22;8784;50.94667800;7.08448400;2023-07-20T06:24:01;20.00;98.90
17333;DHT22;8784;50.94667800;7.08448400;2023-07-20T06:26:28;20.10;98.80
17333;DHT22;8784;50.94667800;7.08448400;2023-07-20T06:28:55;20.20;98.70
17333;DHT22;8784;50.94667800;7.08448400;2023-07-20T06:31:22;20.40;98.50
17333;DHT22;8784;50.94667800;7.08448400;2023-07-20T06:33:49;20.50;98.30
17333;DHT22;8784;50.94667800;7.08448400;2023-07-20T06:36:17;20.60;98.00
17333;DHT22;8784;50.94667800;7.08448400;2023-07-20T06:38:44;20.90;97.80
17333;DHT22;8784;50.94667800;7.08448400;2023-07-20T06:41:12;21.30;97.40
17333;DHT22;8784;50.94667800;7.08448400;2023-07-20T06:43:39;21.80;96.80
17333;DHT22;8784;50.94667800;7.08448400;2023-07-20T06:46:06;22.00;96.30
17333;DHT22;8784;50.94667800;7.08448400;2023-07-20T06:48:33;22.10;95.90
17333;DHT22;8784;50.94667800;7.08448400;2023-07-20T06:51:00;22.20;95.40
17333;DHT22;8784;50.94667800;7.08448400;2023-07-20T06:53:28;22.20;95.10
17333;DHT22;8784;50.94667800;7.08448400;2023-07-20T06:55:55;21.90;94.90
17333;DHT22;8784;50.94667800;7.08448400;2023-07-20T06:58:24;21.80;94.90
17333;DHT22;8784;50.94667800;7.08448400;2023-07-20T07:00:51;21.60;95.10
17333;DHT22;8784;50.94667800;7.08448400;2023-07-20T07:03:18;21.40;95.20
17333;DHT22;8784;50.94667800;7.08448400;2023-07-20T07:05:47;21.20;95.30
17333;DHT22;8784;50.94667800;7.08448400;2023-07-20T07:08:14;21.00;95.40
17333;DHT22;8784;50.94667800;7.08448400;2023-07-20T07:10:41;20.90;95.60
17333;DHT22;8784;50.94667800;7.08448400;2023-07-20T07:13:08;20.90;95.80
17333;DHT22;8784;50.94667800;7.08448400;2023-07-20T07:15:36;21.30;95.80
17333;DHT22;8784;50.94667800;7.08448400;2023-07-20T07:18:03;21.70;95.50
17333;DHT22;8784;50.94667800;7.08448400;2023-07-20T07:20:30;22.10;94.90
17333;DHT22;8784;50.94667800;7.08448400;2023-07-20T07:22:57;23.00;94.10
17333;DHT22;8784;50.94667800;7.08448400;2023-07-20T07:25:24;23.30;93.00
17333;DHT22;8784;50.94667800;7.08448400;2023-07-20T07:27:53;23.40;92.70
17333;DHT22;8784;50.94667800;7.08448400;2023-07-20T07:30:21;23.50;92.40
17333;DHT22;8784;50.94667800;7.08448400;2023-07-20T07:32:50;25.50;91.50
17333;DHT22;8784;50.94667800;7.08448400;2023-07-20T07:35:17;26.50;89.00
17333;DHT22;8784;50.94667800;7.08448400;2023-07-20T07:37:44;26.60;85.70
17333;DHT22;8784;50.94667800;7.08448400;2023-07-20T07:40:12;26.70;84.10
17333;DHT22;8784;50.94667800;7.08448400;2023-07-20T07:42:40;26.50;83.20
17333;DHT22;8784;50.94667800;7.08448400;2023-07-20T07:45:08;26.20;82.10
17333;DHT22;8784;50.94667800;7.08448400;2023-07-20T07:47:35;25.90;82.00
17333;DHT22;8784;50.94667800;7.08448400;2023-07-20T07:50:04;26.10;81.50
17333;DHT22;8784;50.94667800;7.08448400;2023-07-20T07:52:31;26.80;80.10
17333;DHT22;8784;50.94667800;7.08448400;2023-07-20T07:54:58;27.50;79.00
17333;DHT22;8784;50.94667800;7.08448400;2023-07-20T07:57:25;30.20;76.20
17333;DHT22;8784;50.94667800;7.08448400;2023-07-20T07:59:52;32.80;71.30
17333;DHT22;8784;50.94667800;7.08448400;2023-07-20T08:02:19;35.20;65.60
17333;DHT22;8784;50.94667800;7.08448400;2023-07-20T08:04:46;36.90;60.40
17333;DHT22;8784;50.94667800;7.08448400;2023-07-20T08:07:15;38.70;56.50
17333;DHT22;8784;50.94667800;7.08448400;2023-07-20T08:09:42;39.70;53.80
17333;DHT22;8784;50.94667800;7.08448400;2023-07-20T08:12:09;40.00;52.00
17333;DHT22;8784;50.94667800;7.08448400;2023-07-20T08:14:36;38.60;51.70
17333;DHT22;8784;50.94667800;7.08448400;2023-07-20T08:17:03;36.90;52.70
17333;DHT22;8784;50.94667800;7.08448400;2023-07-20T08:19:30;36.40;53.00
17333;DHT22;8784;50.94667800;7.08448400;2023-07-20T08:21:57;38.00;52.40
17333;DHT22;8784;50.94667800;7.08448400;2023-07-20T08:24:25;39.50;50.50
17333;DHT22;8784;50.94667800;7.08448400;2023-07-20T08:26:52;39.50;48.40
17333;DHT22;8784;50.94667800;7.08448400;2023-07-20T08:29:19;37.60;48.40
17333;DHT22;8784;50.94667800;7.08448400;2023-07-20T08:31:46;35.50;49.30
17333;DHT22;8784;50.94667800;7.08448400;2023-07-20T08:34:14;33.70;50.50
17333;DHT22;8784;50.94667800;7.08448400;2023-07-20T08:36:41;34.50;52.20
17333;DHT22;8784;50.94667800;7.08448400;2023-07-20T08:39:08;36.70;50.60
17333;DHT22;8784;50.94667800;7.08448400;2023-07-20T08:41:36;38.50;48.90
17333;DHT22;8784;50.94667800;7.08448400;2023-07-20T08:44:04;38.30;47.20
17333;DHT22;8784;50.94667800;7.08448400;2023-07-20T08:46:33;37.40;47.40
17333;DHT22;8784;50.94667800;7.08448400;2023-07-20T08:49:02;35.90;47.70
17333;DHT22;8784;50.94667800;7.08448400;2023-07-20T08:51:30;34.20;48.90
17333;DHT22;8784;50.94667800;7.08448400;2023-07-20T08:53:58;33.10;50.30
17333;DHT22;8784;50.94667800;7.08448400;2023-07-20T08:56:26;34.60;50.20
17333;DHT22;8784;50.94667800;7.08448400;2023-07-20T08:58:54;36.70;48.00
17333;DHT22;8784;50.94667800;7.08448400;2023-07-20T09:01:22;38.60;46.70
17333;DHT22;8784;50.94667800;7.08448400;2023-07-20T09:03:49;40.20;44.90
17333;DHT22;8784;50.94667800;7.08448400;2023-07-20T09:06:16;41.50;43.70
17333;DHT22;8784;50.94667800;7.08448400;2023-07-20T09:08:43;42.30;43.00
17333;DHT22;8784;50.94667800;7.08448400;2023-07-20T09:11:12;43.50;41.80
17333;DHT22;8784;50.94667800;7.08448400;2023-07-20T09:13:40;43.90;40.80
17333;DHT22;8784;50.94667800;7.08448400;2023-07-20T09:16:09;42.10;41.30
17333;DHT22;8784;50.94667800;7.08448400;2023-07-20T09:18:39;39.60;42.40
17333;DHT22;8784;50.94667800;7.08448400;2023-07-20T09:21:06;37.30;44.00
17333;DHT22;8784;50.94667800;7.08448400;2023-07-20T09:23:34;35.70;45.20
17333;DHT22;8784;50.94667800;7.08448400;2023-07-20T09:26:09;34.30;45.60
17333;DHT22;8784;50.94667800;7.08448400;2023-07-20T09:28:42;34.10;46.30
17333;DHT22;8784;50.94667800;7.08448400;2023-07-20T09:31:17;34.60;46.50
17333;DHT22;8784;50.94667800;7.08448400;2023-07-20T09:33:45;35.30;46.00
17333;DHT22;8784;50.94667800;7.08448400;2023-07-20T09:36:12;35.30;45.60
17333;DHT22;8784;50.94667800;7.08448400;2023-07-20T09:38:41;35.60;45.50
17333;DHT22;8784;50.94667800;7.08448400;2023-07-20T09:41:12;37.30;45.10
17333;DHT22;8784;50.94667800;7.08448400;2023-07-20T09:43:40;38.20;44.30
17333;DHT22;8784;50.94667800;7.08448400;2023-07-20T09:46:06;38.20;43.90
17333;DHT22;8784;50.94667800;7.08448400;2023-07-20T09:48:35;37.90;43.70
17333;DHT22;8784;50.94667800;7.08448400;2023-07-20T09:51:02;37.10;43.70
17333;DHT22;8784;50.94667800;7.08448400;2023-07-20T09:53:30;35.80;43.90
17333;DHT22;8784;50.94667800;7.08448400;2023-07-20T09:55:59;34.50;45.00
17333;DHT22;8784;50.94667800;7.08448400;2023-07-20T09:58:26;33.90;45.80
17333;DHT22;8784;50.94667800;7.08448400;2023-07-20T10:00:55;34.00;46.60
17333;DHT22;8784;50.94667800;7.08448400;2023-07-20T10:03:28;33.70;46.50
17333;DHT22;8784;50.94667800;7.08448400;2023-07-20T10:05:58;33.10;47.10
17333;DHT22;8784;50.94667800;7.08448400;2023-07-20T10:08:29;32.80;47.50
17333;DHT22;8784;50.94667800;7.08448400;2023-07-20T10:10:59;33.30;47.80
17333;DHT22;8784;50.94667800;7.08448400;2023-07-20T10:13:27;33.50;47.60
17333;DHT22;8784;50.94667800;7.08448400;2023-07-20T10:15:59;33.20;47.20
17333;DHT22;8784;50.94667800;7.08448400;2023-07-20T10:18:30;33.30;47.30
17333;DHT22;8784;50.94667800;7.08448400;2023-07-20T10:21:00;33.80;47.60
17333;DHT22;8784;50.94667800;7.08448400;2023-07-20T10:23:29;33.90;46.80
17333;DHT22;8784;50.94667800;7.08448400;2023-07-20T10:25:57;34.30;46.70
17333;DHT22;8784;50.94667800;7.08448400;2023-07-20T10:28:25;34.80;46.00
17333;DHT22;8784;50.94667800;7.08448400;2023-07-20T10:30:53;35.30;45.00
17333;DHT22;8784;50.94667800;7.08448400;2023-07-20T10:33:20;35.90;44.70
17333;DHT22;8784;50.94667800;7.08448400;2023-07-20T10:35:52;36.00;44.50
17333;DHT22;8784;50.94667800;7.08448400;2023-07-20T10:38:21;35.60;44.70
17333;DHT22;8784;50.94667800;7.08448400;2023-07-20T10:41:04;34.90;43.90
17333;DHT22;8784;50.94667800;7.08448400;2023-07-20T10:43:36;34.50;44.40
17333;DHT22;8784;50.94667800;7.08448400;2023-07-20T10:46:03;34.30;45.30
17333;DHT22;8784;50.94667800;7.08448400;2023-07-20T10:48:30;34.00;45.20
17333;DHT22;8784;50.94667800;7.08448400;2023-07-20T10:51:11;33.50;44.70
17333;DHT22;8784;50.94667800;7.08448400;2023-07-20T10:53:40;32.90;44.90
17333;DHT22;8784;50.94667800;7.08448400;2023-07-20T10:56:08;32.20;45.80
17333;DHT22;8784;50.94667800;7.08448400;2023-07-20T10:58:35;31.60;46.20
17333;DHT22;8784;50.94667800;7.08448400;2023-07-20T11:01:04;31.10;46.90
17333;DHT22;8784;50.94667800;7.08448400;2023-07-20T11:03:33;30.50;47.20
17333;DHT22;8784;50.94667800;7.08448400;2023-07-20T11:06:30;30.10;47.60
17333;DHT22;8784;50.94667800;7.08448400;2023-07-20T11:09:05;29.70;47.80
17333;DHT22;8784;50.94667800;7.08448400;2023-07-20T11:11:34;29.40;48.60
17333;DHT22;8784;50.94667800;7.08448400;2023-07-20T11:14:03;29.00;49.10
17333;DHT22;8784;50.94667800;7.08448400;2023-07-20T11:16:37;28.70;49.80
17333;DHT22;8784;50.94667800;7.08448400;2023-07-20T11:19:05;28.50;49.90
17333;DHT22;8784;50.94667800;7.08448400;2023-07-20T11:21:36;28.40;50.00
17333;DHT22;8784;50.94667800;7.08448400;2023-07-20T11:24:06;28.10;50.10
17333;DHT22;8784;50.94667800;7.08448400;2023-07-20T11:26:45;27.90;50.40
17333;DHT22;8784;50.94667800;7.08448400;2023-07-20T11:29:12;27.80;50.90
17333;DHT22;8784;50.94667800;7.08448400;2023-07-20T11:31:41;27.70;51.00
17333;DHT22;8784;50.94667800;7.08448400;2023-07-20T11:34:11;27.60;50.70
17333;DHT22;8784;50.94667800;7.08448400;2023-07-20T11:36:40;27.60;50.60
17333;DHT22;8784;50.94667800;7.08448400;2023-07-20T11:39:11;27.50;50.90
17333;DHT22;8784;50.94667800;7.08448400;2023-07-20T11:41:38;27.50;51.50
17333;DHT22;8784;50.94667800;7.08448400;2023-07-20T11:44:06;27.50;51.40
17333;DHT22;8784;50.94667800;7.08448400;2023-07-20T11:46:33;27.40;51.00
17333;DHT22;8784;50.94667800;7.08448400;2023-07-20T11:49:01;27.20;51.40
17333;DHT22;8784;50.94667800;7.08448400;2023-07-20T11:51:29;27.00;51.60
17333;DHT22;8784;50.94667800;7.08448400;2023-07-20T11:53:56;27.00;51.80
17333;DHT22;8784;50.94667800;7.08448400;2023-07-20T11:56:25;27.00;51.80
17333;DHT22;8784;50.94667800;7.08448400;2023-07-20T11:58:55;26.90;52.00
17333;DHT22;8784;50.94667800;7.08448400;2023-07-20T12:01:25;27.00;51.80
17333;DHT22;8784;50.94667800;7.08448400;2023-07-20T12:03:55;27.10;52.20
17333;DHT22;8784;50.94667800;7.08448400;2023-07-20T12:06:23;27.20;51.90
17333;DHT22;8784;50.94667800;7.08448400;2023-07-20T12:08:52;27.40;51.40
17333;DHT22;8784;50.94667800;7.08448400;2023-07-20T12:11:32;27.50;51.00
17333;DHT22;8784;50.94667800;7.08448400;2023-07-20T12:13:59;27.70;51.50
17333;DHT22;8784;50.94667800;7.08448400;2023-07-20T12:16:27;27.90;51.20
17333;DHT22;8784;50.94667800;7.08448400;2023-07-20T12:18:59;28.00;50.60
17333;DHT22;8784;50.94667800;7.08448400;2023-07-20T12:21:27;27.90;50.30
17333;DHT22;8784;50.94667800;7.08448400;2023-07-20T12:23:56;27.80;50.70
17333;DHT22;8784;50.94667800;7.08448400;2023-07-20T12:26:24;27.80;50.60
17333;DHT22;8784;50.94667800;7.08448400;2023-07-20T12:28:52;27.80;50.70
17333;DHT22;8784;50.94667800;7.08448400;2023-07-20T12:31:20;27.70;50.80
17333;DHT22;8784;50.94667800;7.08448400;2023-07-20T12:33:48;27.50;50.80
17333;DHT22;8784;50.94667800;7.08448400;2023-07-20T12:36:14;27.40;50.80
17333;DHT22;8784;50.94667800;7.08448400;2023-07-20T12:38:41;27.10;50.70
17333;DHT22;8784;50.94667800;7.08448400;2023-07-20T12:41:10;26.90;51.40
17333;DHT22;8784;50.94667800;7.08448400;2023-07-20T12:43:39;26.70;52.00
17333;DHT22;8784;50.94667800;7.08448400;2023-07-20T12:46:08;26.50;52.40
17333;DHT22;8784;50.94667800;7.08448400;2023-07-20T12:48:36;26.30;53.10
17333;DHT22;8784;50.94667800;7.08448400;2023-07-20T12:51:03;26.10;53.10
17333;DHT22;8784;50.94667800;7.08448400;2023-07-20T12:53:31;25.90;53.30
17333;DHT22;8784;50.94667800;7.08448400;2023-07-20T12:55:58;25.80;53.40
17333;DHT22;8784;50.94667800;7.08448400;2023-07-20T12:58:25;25.60;53.50
17333;DHT22;8784;50.94667800;7.08448400;2023-07-20T13:00:52;25.50;53.80
17333;DHT22;8784;50.94667800;7.08448400;2023-07-20T13:03:21;25.40;54.00
17333;DHT22;8784;50.94667800;7.08448400;2023-07-20T13:05:48;25.30;54.30
17333;DHT22;8784;50.94667800;7.08448400;2023-07-20T13:08:15;25.20;54.30
17333;DHT22;8784;50.94667800;7.08448400;2023-07-20T13:10:43;25.20;54.70
17333;DHT22;8784;50.94667800;7.08448400;2023-07-20T13:13:10;25.20;55.00
17333;DHT22;8784;50.94667800;7.08448400;2023-07-20T13:15:42;25.20;55.00
17333;DHT22;8784;50.94667800;7.08448400;2023-07-20T13:18:09;25.20;54.70
17333;DHT22;8784;50.94667800;7.08448400;2023-07-20T13:20:37;25.10;54.60
17333;DHT22;8784;50.94667800;7.08448400;2023-07-20T13:23:04;25.10;54.70
17333;DHT22;8784;50.94667800;7.08448400;2023-07-20T13:25:31;25.10;55.60
17333;DHT22;8784;50.94667800;7.08448400;2023-07-20T13:27:58;25.20;55.20
17333;DHT22;8784;50.94667800;7.08448400;2023-07-20T13:30:25;25.40;54.80
17333;DHT22;8784;50.94667800;7.08448400;2023-07-20T13:32:52;25.60;55.00
17333;DHT22;8784;50.94667800;7.08448400;2023-07-20T13:35:19;25.80;54.90
17333;DHT22;8784;50.94667800;7.08448400;2023-07-20T13:37:48;25.90;54.20
17333;DHT22;8784;50.94667800;7.08448400;2023-07-20T13:40:15;26.00;54.10
17333;DHT22;8784;50.94667800;7.08448400;2023-07-20T13:42:44;26.10;53.90